createdAt,value
2023-04-26T00:00:33.600Z,5.80
2023-04-26T00:03:08.959Z,4.97
2023-04-26T00:05:40.676Z,5.53
2023-04-26T00:08:20.437Z,5.65
2023-04-26T00:10:49.786Z,5.32
2023-04-26T00:13:18.965Z,5.80
2023-04-26T00:15:48.392Z,5.45
2023-04-26T00:18:17.777Z,7.35
2023-04-26T00:23:29.592Z,8.18
2023-04-26T00:26:04.452Z,6.10
2023-04-26T00:28:34.145Z,6.40
2023-04-26T00:31:03.642Z,4.93
2023-04-26T00:33:33.285Z,7.40
2023-04-26T00:36:23.374Z,6.35
2023-04-26T00:38:54.920Z,5.00
2023-04-26T00:41:29.531Z,5.30
2023-04-26T00:43:58.898Z,8.02
2023-04-26T00:46:29.132Z,6.45
2023-04-26T00:48:59.425Z,7.88
2023-04-26T00:51:45.719Z,7.32
2023-04-26T00:54:15.679Z,6.53
2023-04-26T00:56:45.872Z,7.15
2023-04-26T00:59:21.988Z,8.57
2023-04-26T01:01:51.684Z,10.70
2023-04-26T01:04:42.001Z,5.97
2023-04-26T01:07:14.072Z,12.45
2023-04-26T01:09:43.379Z,9.60
2023-04-26T01:12:13.539Z,7.43
2023-04-26T01:17:25.602Z,7.57
2023-04-26T01:20:05.130Z,6.75
2023-04-26T01:22:38.170Z,6.30
2023-04-26T01:25:29.865Z,9.07
2023-04-26T01:27:59.289Z,9.32
2023-04-26T01:30:28.609Z,6.10
2023-04-26T01:32:57.947Z,6.70
2023-04-26T01:35:28.167Z,7.10
2023-04-26T01:38:09.790Z,6.78
2023-04-26T01:40:39.130Z,8.88
2023-04-26T01:43:08.524Z,7.40
2023-04-26T01:45:37.888Z,6.05
2023-04-26T01:48:25.735Z,6.80
2023-04-26T01:51:00.183Z,6.85
2023-04-26T01:53:31.488Z,7.13
2023-04-26T01:56:03.698Z,8.10
2023-04-26T01:58:33.654Z,6.95
2023-04-26T02:01:08.227Z,5.97
2023-04-26T02:03:56.434Z,7.15
2023-04-26T02:06:26.164Z,6.93
2023-04-26T02:08:57.353Z,7.72
2023-04-26T02:11:48.248Z,7.68
2023-04-26T02:14:17.673Z,7.70
2023-04-26T02:16:46.989Z,6.10
2023-04-26T02:19:16.667Z,5.15
2023-04-26T02:21:57.541Z,6.70
2023-04-26T02:24:41.052Z,7.95
2023-04-26T02:27:10.436Z,10.35
2023-04-26T02:29:43.881Z,4.95
2023-04-26T02:32:34.783Z,5.75
2023-04-26T02:35:04.897Z,5.75
2023-04-26T02:37:35.590Z,4.88
2023-04-26T02:40:10.599Z,8.07
2023-04-26T02:42:45.032Z,5.25
2023-04-26T02:45:14.816Z,7.63
2023-04-26T02:47:44.522Z,5.57
2023-04-26T02:50:14.108Z,5.65
2023-04-26T02:52:50.222Z,5.13
2023-04-26T02:55:21.935Z,5.90
2023-04-26T02:57:51.481Z,5.15
2023-04-26T03:00:20.826Z,4.93
2023-04-26T03:02:50.367Z,4.30
2023-04-26T03:05:20.607Z,7.93
2023-04-26T03:07:49.885Z,4.82
2023-04-26T03:10:21.213Z,6.72
2023-04-26T03:12:50.718Z,7.50
2023-04-26T03:15:20.211Z,4.93
2023-04-26T03:17:49.566Z,5.25
2023-04-26T03:20:19.143Z,5.80
2023-04-26T03:22:53.614Z,5.88
2023-04-26T03:25:24.869Z,7.97
2023-04-26T03:27:55.110Z,6.95
2023-04-26T03:30:24.552Z,5.75
2023-04-26T03:35:30.599Z,5.65
2023-04-26T03:38:01.020Z,5.30
2023-04-26T03:40:37.283Z,5.25
2023-04-26T03:43:06.639Z,6.15
2023-04-26T03:45:36.367Z,5.75
2023-04-26T03:48:15.887Z,5.95
2023-04-26T03:50:46.691Z,6.07
2023-04-26T03:53:16.373Z,4.15
2023-04-26T03:55:48.934Z,5.87
2023-04-26T04:00:59.066Z,6.43
2023-04-26T04:03:30.008Z,6.75
2023-04-26T04:06:04.500Z,4.63
2023-04-26T04:08:33.855Z,4.03
2023-04-26T04:11:11.821Z,3.40
2023-04-26T04:13:42.053Z,4.70
2023-04-26T04:16:16.361Z,4.68
2023-04-26T04:18:46.179Z,4.30
2023-04-26T04:21:16.116Z,4.65
2023-04-26T04:23:51.825Z,2.95
2023-04-26T04:26:23.216Z,3.85
2023-04-26T04:31:29.757Z,3.05
2023-04-26T04:34:05.579Z,3.17
2023-04-26T04:36:38.462Z,3.13
2023-04-26T04:41:47.989Z,3.17
2023-04-26T04:44:19.682Z,4.32
2023-04-26T04:46:54.664Z,2.95
2023-04-26T04:49:24.643Z,3.47
2023-04-26T04:51:54.067Z,4.35
2023-04-26T04:54:24.521Z,2.83
2023-04-26T04:56:57.172Z,2.65
2023-04-26T04:59:27.957Z,2.58
2023-04-26T05:02:03.058Z,2.45
2023-04-26T05:04:34.768Z,2.83
2023-04-26T05:07:17.980Z,3.17
2023-04-26T05:09:47.598Z,5.07
2023-04-26T05:12:24.024Z,2.42
2023-04-26T05:14:53.942Z,2.25
2023-04-26T05:17:23.490Z,3.13
2023-04-26T05:19:54.110Z,3.55
2023-04-26T05:22:24.163Z,2.60
2023-04-26T05:24:59.348Z,2.55
2023-04-26T05:27:32.636Z,2.28
2023-04-26T05:30:18.537Z,3.72
2023-04-26T05:33:10.691Z,2.30
2023-04-26T05:35:49.273Z,3.40
2023-04-26T05:38:30.439Z,1.98
2023-04-26T05:41:05.213Z,2.47
2023-04-26T05:43:36.561Z,4.65
2023-04-26T05:46:06.625Z,1.90
2023-04-26T05:48:35.948Z,2.35
2023-04-26T05:51:05.218Z,2.30
2023-04-26T05:53:39.652Z,2.15
2023-04-26T05:56:30.428Z,4.00
2023-04-26T05:59:02.130Z,3.70
2023-04-26T06:01:31.457Z,3.90
2023-04-26T06:04:01.961Z,2.40
2023-04-26T06:06:43.847Z,2.00
2023-04-26T06:09:13.565Z,2.22
2023-04-26T06:11:43.598Z,2.83
2023-04-26T06:14:29.384Z,2.20
2023-04-26T06:17:11.442Z,2.85
2023-04-26T06:19:40.829Z,2.55
2023-04-26T06:22:10.068Z,2.90
2023-04-26T06:24:39.602Z,2.08
2023-04-26T06:27:09.367Z,2.20
2023-04-26T06:29:43.385Z,2.67
2023-04-26T06:32:12.986Z,2.03
2023-04-26T06:34:43.665Z,2.03
2023-04-26T06:37:13.352Z,2.80
2023-04-26T06:39:45.318Z,3.20
2023-04-26T06:42:15.444Z,2.55
2023-04-26T06:45:13.989Z,4.95
2023-04-26T06:47:43.704Z,2.53
2023-04-26T06:50:13.795Z,3.08
2023-04-26T06:52:43.510Z,2.28
2023-04-26T06:55:12.977Z,2.33
2023-04-26T06:57:43.217Z,4.88
2023-04-26T07:00:15.915Z,2.75
2023-04-26T07:02:50.560Z,2.05
2023-04-26T07:05:20.128Z,1.85
2023-04-26T07:07:49.692Z,1.92
2023-04-26T07:10:25.702Z,2.47
2023-04-26T07:12:59.996Z,2.63
2023-04-26T07:15:32.992Z,1.77
2023-04-26T07:18:02.491Z,2.00
2023-04-26T07:20:31.958Z,3.15
2023-04-26T07:23:11.394Z,4.95
2023-04-26T07:25:46.654Z,4.38
2023-04-26T07:28:15.982Z,2.20
2023-04-26T07:30:47.320Z,1.85
2023-04-26T07:33:16.701Z,2.40
2023-04-26T07:35:57.590Z,1.95
2023-04-26T07:38:27.455Z,3.13
2023-04-26T07:40:58.036Z,1.70
2023-04-26T07:43:34.398Z,2.10
2023-04-26T07:46:05.774Z,1.73
2023-04-26T07:51:10.196Z,2.70
2023-04-26T07:53:44.704Z,2.20
2023-04-26T07:56:14.930Z,2.78
2023-04-26T07:58:44.567Z,2.70
2023-04-26T08:01:16.812Z,4.10
2023-04-26T08:03:47.273Z,2.25
2023-04-26T08:06:16.964Z,2.60
2023-04-26T08:08:53.401Z,4.88
2023-04-26T08:11:22.887Z,1.65
2023-04-26T08:13:52.461Z,2.05
2023-04-26T08:16:23.899Z,1.90
2023-04-26T08:19:02.361Z,1.95
2023-04-26T08:21:32.344Z,3.05
2023-04-26T08:24:01.545Z,3.05
2023-04-26T08:26:37.566Z,3.38
2023-04-26T08:29:11.861Z,3.08
2023-04-26T08:34:18.261Z,4.63
2023-04-26T08:36:47.653Z,3.30
2023-04-26T08:39:17.474Z,2.42
2023-04-26T08:41:51.889Z,2.75
2023-04-26T08:44:25.305Z,4.05
2023-04-26T08:47:05.017Z,2.60
2023-04-26T08:49:43.193Z,2.97
2023-04-26T08:52:14.413Z,3.75
2023-04-26T08:54:44.162Z,3.47
2023-04-26T08:57:14.319Z,2.10
2023-04-26T08:59:48.977Z,6.00
2023-04-26T09:02:22.765Z,3.97
2023-04-26T09:04:53.311Z,5.80
2023-04-26T09:07:24.379Z,2.42
2023-04-26T09:09:56.553Z,2.88
2023-04-26T09:12:26.394Z,5.38
2023-04-26T09:14:56.138Z,2.75
2023-04-26T09:17:32.693Z,2.80
2023-04-26T09:20:07.746Z,2.90
2023-04-26T09:22:39.383Z,2.78
2023-04-26T09:25:10.236Z,2.60
2023-04-26T09:27:41.634Z,4.40
2023-04-26T09:30:15.363Z,3.53
2023-04-26T09:32:58.547Z,2.85
2023-04-26T09:35:30.695Z,3.72
2023-04-26T09:38:13.835Z,3.58
2023-04-26T09:40:59.156Z,2.20
2023-04-26T09:43:28.758Z,4.75
2023-04-26T09:46:00.518Z,2.67
2023-04-26T09:48:34.200Z,3.60
2023-04-26T09:51:22.231Z,4.18
2023-04-26T09:53:52.027Z,3.15
2023-04-26T09:56:22.329Z,4.07
2023-04-26T09:59:00.860Z,3.67
2023-04-26T10:01:36.311Z,6.85
2023-04-26T10:04:13.197Z,4.97
2023-04-26T10:06:42.639Z,4.72
2023-04-26T10:09:12.175Z,3.72
2023-04-26T10:11:41.933Z,3.72
2023-04-26T10:14:17.217Z,3.17
2023-04-26T10:16:52.621Z,3.00
2023-04-26T10:19:25.329Z,4.28
2023-04-26T10:21:59.394Z,3.80
2023-04-26T10:24:30.434Z,2.90
2023-04-26T10:30:10.430Z,2.55
2023-04-26T10:33:18.843Z,3.90
2023-04-26T10:36:06.556Z,3.78
2023-04-26T10:38:36.902Z,4.18
2023-04-26T10:41:31.259Z,4.20
2023-04-26T10:44:02.575Z,5.07
2023-04-26T10:46:45.884Z,6.57
2023-04-26T10:49:17.272Z,5.03
2023-04-26T10:54:57.130Z,7.28
2023-04-26T10:57:42.129Z,6.40
2023-04-26T11:00:38.656Z,5.22
2023-04-26T11:03:09.226Z,5.50
2023-04-26T11:05:56.319Z,7.40
2023-04-26T11:08:32.775Z,5.03
2023-04-26T11:11:10.745Z,4.90
2023-04-26T11:13:46.459Z,8.60
2023-04-26T11:16:17.132Z,5.90
2023-04-26T11:18:56.674Z,6.82
2023-04-26T11:21:28.364Z,5.28
2023-04-26T11:26:36.350Z,5.30
2023-04-26T11:29:05.672Z,4.88
2023-04-26T11:31:39.966Z,4.20
2023-04-26T11:34:09.629Z,5.97
2023-04-26T11:36:45.598Z,4.70
2023-04-26T11:39:17.419Z,4.30
2023-04-26T11:44:19.757Z,4.22
2023-04-26T11:46:50.674Z,6.13
2023-04-26T11:49:20.388Z,6.67
2023-04-26T11:51:53.000Z,5.88
2023-04-26T11:54:35.412Z,3.35
2023-04-26T11:57:17.343Z,11.73
2023-04-26T11:59:47.757Z,3.40
2023-04-26T12:02:17.109Z,2.55
2023-04-26T12:04:46.920Z,2.05
2023-04-26T12:07:21.272Z,1.85
2023-04-26T12:09:52.661Z,2.80
2023-04-26T12:12:25.355Z,3.65
2023-04-26T12:14:54.750Z,3.92
2023-04-26T12:17:24.072Z,3.15
2023-04-26T12:19:53.938Z,2.67
2023-04-26T12:22:23.708Z,1.85
2023-04-26T12:25:07.035Z,2.70
2023-04-26T12:27:36.520Z,2.13
2023-04-26T12:30:06.880Z,2.67
2023-04-26T12:35:11.723Z,3.33
2023-04-26T12:37:40.988Z,1.38
2023-04-26T12:40:14.351Z,1.45
2023-04-26T12:42:43.717Z,2.00
2023-04-26T12:51:56.412Z,1.67
2023-04-26T12:54:27.065Z,2.47
2023-04-26T12:56:56.609Z,2.45
2023-04-26T12:59:25.960Z,3.55
2023-04-26T13:02:01.298Z,2.08
2023-04-26T13:04:30.749Z,3.17
2023-04-26T13:09:42.657Z,2.78
2023-04-26T13:12:11.966Z,1.50
2023-04-26T13:14:48.380Z,2.03
2023-04-26T13:17:17.875Z,2.13
2023-04-26T13:19:47.484Z,1.77
2023-04-26T13:22:19.256Z,6.30
2023-04-26T13:24:49.230Z,1.83
2023-04-26T13:27:18.871Z,4.32
2023-04-26T13:29:48.206Z,3.90
2023-04-26T13:32:17.377Z,2.53
2023-04-26T13:34:47.212Z,4.10
2023-04-26T13:37:20.869Z,3.80
2023-04-26T13:39:50.641Z,5.18
2023-04-26T13:42:20.269Z,6.30
2023-04-26T13:44:49.651Z,4.15
2023-04-26T13:47:19.060Z,6.30
2023-04-26T13:49:54.291Z,4.05
2023-04-26T13:52:26.193Z,3.28
2023-04-26T13:55:02.844Z,5.57
2023-04-26T13:57:33.542Z,3.08
2023-04-26T14:00:14.525Z,2.83
2023-04-26T14:02:43.875Z,3.43
2023-04-26T14:05:15.256Z,2.13
2023-04-26T14:07:46.837Z,4.47
2023-04-26T14:10:21.290Z,2.08
2023-04-26T14:12:50.820Z,2.80
2023-04-26T14:15:20.056Z,3.83
2023-04-26T14:17:49.753Z,3.83
2023-04-26T14:20:19.270Z,5.07
2023-04-26T14:22:50.830Z,2.53
2023-04-26T14:25:20.383Z,4.00
2023-04-26T14:27:51.814Z,3.45
2023-04-26T14:30:24.166Z,6.20
2023-04-26T14:32:53.573Z,2.60
2023-04-26T14:35:22.938Z,2.53
2023-04-26T14:37:54.381Z,4.13
2023-04-26T14:40:26.361Z,2.60
2023-04-26T14:45:43.546Z,3.85
2023-04-26T14:48:13.970Z,3.10
2023-04-26T14:50:43.483Z,6.85
2023-04-26T14:53:14.874Z,4.72
2023-04-26T14:55:44.418Z,3.45
2023-04-26T14:58:22.031Z,3.42
2023-04-26T15:00:52.389Z,6.38
2023-04-26T15:03:22.736Z,3.45
2023-04-26T15:05:57.670Z,3.53
2023-04-26T15:08:29.776Z,3.97
2023-04-26T15:10:59.199Z,2.20
2023-04-26T15:13:28.365Z,3.03
2023-04-26T15:16:09.257Z,3.50
2023-04-26T15:18:38.486Z,2.15
2023-04-26T15:21:08.243Z,6.28
2023-04-26T15:23:40.055Z,4.85
2023-04-26T15:26:09.331Z,3.55
2023-04-26T15:28:43.680Z,4.50
2023-04-26T15:31:13.159Z,5.38
2023-04-26T15:33:42.787Z,4.03
2023-04-26T15:36:12.351Z,2.65
2023-04-26T15:38:45.003Z,3.58
2023-04-26T15:41:14.272Z,4.78
2023-04-26T15:43:44.142Z,4.35
2023-04-26T15:46:16.556Z,5.15
2023-04-26T15:48:46.336Z,5.45
2023-04-26T15:51:15.974Z,5.57
2023-04-26T15:53:47.265Z,6.75
2023-04-26T15:56:17.462Z,4.53
2023-04-26T15:58:47.042Z,4.82
2023-04-26T16:01:16.991Z,6.47
2023-04-26T16:03:47.888Z,4.65
2023-04-26T16:06:17.607Z,6.53
2023-04-26T16:08:48.946Z,4.57
2023-04-26T16:11:18.434Z,3.75
2023-04-26T16:13:51.404Z,4.95
2023-04-26T16:16:22.401Z,6.95
2023-04-26T16:18:52.060Z,5.65
2023-04-26T16:21:21.399Z,4.20
2023-04-26T16:23:58.506Z,4.88
2023-04-26T16:26:28.487Z,7.40
2023-04-26T16:28:57.620Z,6.18
2023-04-26T16:31:27.228Z,7.75
2023-04-26T16:33:56.469Z,4.40
2023-04-26T16:36:32.701Z,2.90
2023-04-26T16:39:03.870Z,5.18
2023-04-26T16:41:33.182Z,6.80
2023-04-26T16:44:07.406Z,5.93
2023-04-26T16:46:36.932Z,4.78
2023-04-26T16:49:09.215Z,6.60
2023-04-26T16:51:38.963Z,9.05
2023-04-26T16:54:10.257Z,7.35
2023-04-26T16:56:49.905Z,7.00
2023-04-26T16:59:20.393Z,7.28
2023-04-26T17:01:50.233Z,5.45
2023-04-26T17:04:19.814Z,5.85
2023-04-26T17:06:54.256Z,6.07
2023-04-26T17:09:30.821Z,4.75
2023-04-26T17:12:05.229Z,4.80
2023-04-26T17:14:34.531Z,3.50
2023-04-26T17:17:03.840Z,6.78
2023-04-26T17:19:33.225Z,7.00
2023-04-26T17:22:02.689Z,6.03
2023-04-26T17:24:33.849Z,7.03
2023-04-26T17:27:04.133Z,4.68
2023-04-26T17:29:33.336Z,5.00
2023-04-26T17:32:04.117Z,4.75
2023-04-26T17:34:33.752Z,6.32
2023-04-26T17:37:03.057Z,4.65
2023-04-26T17:39:34.420Z,6.75
2023-04-26T17:42:04.623Z,7.03
2023-04-26T17:44:34.010Z,4.07
2023-04-26T17:47:03.462Z,6.70
2023-04-26T17:49:32.740Z,6.57
2023-04-26T17:52:02.067Z,5.32
2023-04-26T17:54:33.942Z,8.40
2023-04-26T17:57:03.992Z,6.82
2023-04-26T17:59:33.189Z,4.15
2023-04-26T18:02:07.860Z,4.75
2023-04-26T18:04:37.526Z,7.13
2023-04-26T18:07:07.359Z,7.53
2023-04-26T18:09:38.410Z,4.88
2023-04-26T18:12:07.994Z,4.63
2023-04-26T18:14:43.976Z,5.40
2023-04-26T18:17:14.857Z,4.47
2023-04-26T18:19:50.655Z,4.60
2023-04-26T18:22:20.074Z,7.97
2023-04-26T18:24:51.477Z,9.30
2023-04-26T18:27:21.069Z,9.05
2023-04-26T18:29:50.838Z,8.15
2023-04-26T18:32:20.156Z,7.55
2023-04-26T18:34:49.508Z,8.23
2023-04-26T18:37:19.796Z,9.45
2023-04-26T18:39:51.044Z,4.75
2023-04-26T18:42:20.971Z,8.98
2023-04-26T18:44:50.282Z,10.15
2023-04-26T18:47:28.879Z,8.32
2023-04-26T18:50:04.101Z,8.40
2023-04-26T18:52:38.795Z,7.38
2023-04-26T18:55:11.350Z,10.95
2023-04-26T18:57:40.946Z,7.05
2023-04-26T19:00:11.575Z,10.10
2023-04-26T19:02:41.849Z,9.02
2023-04-26T19:07:53.919Z,4.90
2023-04-26T19:10:31.165Z,7.57
2023-04-26T19:13:00.432Z,10.07
2023-04-26T19:15:29.825Z,7.15
2023-04-26T19:17:59.329Z,5.88
2023-04-26T19:20:29.260Z,8.20
2023-04-26T19:22:58.622Z,11.32
2023-04-26T19:25:30.115Z,7.32
2023-04-26T19:28:02.555Z,11.88
2023-04-26T19:30:32.079Z,8.13
2023-04-26T19:33:01.427Z,11.43
2023-04-26T19:35:30.819Z,8.48
2023-04-26T19:38:00.193Z,10.23
2023-04-26T19:40:30.007Z,10.00
2023-04-26T19:43:01.271Z,7.80
2023-04-26T19:45:37.619Z,7.43
2023-04-26T19:48:10.438Z,10.85
2023-04-26T19:50:43.777Z,10.60
2023-04-26T19:53:18.279Z,5.90
2023-04-26T19:55:48.433Z,8.32
2023-04-26T19:58:24.839Z,14.02
2023-04-26T20:00:54.255Z,9.00
2023-04-26T20:03:23.925Z,8.73
2023-04-26T20:05:53.555Z,8.23
2023-04-26T20:08:22.737Z,9.43
2023-04-26T20:10:57.854Z,7.35
2023-04-26T20:13:41.113Z,9.18
2023-04-26T20:16:10.622Z,6.55
2023-04-26T20:18:40.323Z,6.47
2023-04-26T20:21:09.881Z,6.93
2023-04-26T20:23:39.462Z,10.07
2023-04-26T20:26:08.910Z,6.70
2023-04-26T20:28:45.635Z,7.18
2023-04-26T20:33:46.901Z,5.60
2023-04-26T20:36:17.291Z,7.03
2023-04-26T20:38:46.705Z,7.28
2023-04-26T20:41:16.135Z,4.25
2023-04-26T20:43:47.631Z,4.60
2023-04-26T20:46:22.574Z,8.57
2023-04-26T20:48:52.148Z,5.00
2023-04-26T20:51:21.353Z,5.88
2023-04-26T20:54:00.748Z,7.55
2023-04-26T20:56:30.207Z,7.13
2023-04-26T20:59:08.457Z,5.55
2023-04-26T21:01:38.083Z,7.75
2023-04-26T21:04:12.521Z,5.10
2023-04-26T21:06:42.001Z,4.38
2023-04-26T21:09:11.488Z,5.20
2023-04-26T21:11:50.906Z,4.50
2023-04-26T21:14:22.339Z,10.05
2023-04-26T21:16:51.647Z,4.53
2023-04-26T21:19:25.987Z,3.47
2023-04-26T21:21:55.533Z,9.80
2023-04-26T21:24:24.892Z,5.07
2023-04-26T21:26:54.238Z,9.90
2023-04-26T21:29:25.531Z,5.47
2023-04-26T21:31:55.131Z,7.18
2023-04-26T21:34:31.093Z,7.20
2023-04-26T21:37:00.474Z,8.55
2023-04-26T21:39:37.090Z,4.38
2023-04-26T21:42:06.671Z,7.32
2023-04-26T21:44:44.599Z,9.90
2023-04-26T21:47:13.978Z,5.43
2023-04-26T21:49:43.069Z,5.90
2023-04-26T21:52:12.360Z,7.18
2023-04-26T21:54:41.846Z,6.78
2023-04-26T21:57:11.262Z,4.68
2023-04-26T21:59:41.944Z,5.15
2023-04-26T22:02:13.306Z,4.38
2023-04-26T22:04:47.570Z,7.38
2023-04-26T22:07:17.048Z,6.53
2023-04-26T22:09:46.371Z,4.35
2023-04-26T22:12:20.715Z,5.45
2023-04-26T22:14:50.060Z,7.95
2023-04-26T22:17:21.276Z,5.90
2023-04-26T22:19:50.623Z,12.02
2023-04-26T22:22:20.197Z,8.18
2023-04-26T22:24:54.524Z,5.93
2023-04-26T22:27:23.924Z,9.52
2023-04-26T22:29:53.051Z,7.13
2023-04-26T22:32:30.431Z,6.47
2023-04-26T22:34:59.740Z,5.68
2023-04-26T22:37:28.893Z,6.63
2023-04-26T22:40:04.075Z,5.85
2023-04-26T22:42:33.378Z,7.30
2023-04-26T22:45:02.531Z,6.00
2023-04-26T22:47:35.690Z,8.30
2023-04-26T22:50:05.216Z,5.20
2023-04-26T22:52:37.500Z,6.60
2023-04-26T22:55:07.742Z,10.07
2023-04-26T22:57:37.189Z,6.28
2023-04-26T23:00:09.214Z,6.93
2023-04-26T23:02:45.831Z,6.65
2023-04-26T23:05:15.269Z,8.55
2023-04-26T23:07:44.782Z,8.95
2023-04-26T23:10:14.472Z,7.45
2023-04-26T23:12:44.560Z,9.85
2023-04-26T23:15:14.081Z,10.20
2023-04-26T23:17:53.471Z,6.57
2023-04-26T23:20:22.776Z,6.70
2023-04-26T23:22:52.124Z,6.13
2023-04-26T23:25:22.437Z,9.20
2023-04-26T23:27:51.727Z,10.52
2023-04-26T23:30:26.539Z,9.35
2023-04-26T23:32:57.806Z,11.38
2023-04-26T23:35:27.170Z,8.93
2023-04-26T23:37:56.268Z,9.40
2023-04-26T23:40:25.383Z,7.93
2023-04-26T23:42:59.937Z,6.72
2023-04-26T23:45:29.227Z,7.88
2023-04-26T23:48:00.483Z,7.90
2023-04-26T23:50:29.822Z,9.45
2023-04-26T23:52:59.169Z,13.80
2023-04-26T23:55:33.521Z,12.88
2023-04-26T23:58:02.658Z,9.82
